KSKA/SKA METAR and TAF weather

Enter ICAO airport designator
Station Type Date Time Source
KSKA METAR 2020/01/23 05:34 UTC NOAA

KSKA 230534Z AUTO 07006KT 10SM OVC008 01/01 A3008 RMK AO2 RAE34 CIG 005 RWY05 SLPNO $


Station Type Date Time Source
KSKA Decoded METAR 2020/01/23 05:34 UTC NOAA

Fairchild Air Force Base, WA, United States (KSKA) 47-37N 117-39W
Jan 23, 2020 - 12:34 AM EST / 2020.01.23 0534 UTC
Wind: from the ENE (070 degrees) at 7 MPH (6 KT):0
Visibility: 10 mile(s):0
Sky conditions: overcast
Temperature: 33 F (1 C)
Windchill: 26 F (-3 C):1
Dew Point: 33 F (1 C)
Relative Humidity: 100%
Pressure (altimeter): 30.08 in. Hg (1018 hPa)
ob: KSKA 230534Z AUTO 07006KT 10SM OVC008 01/01 A3008 RMK AO2 RAE34 CIG 005 RWY05 SLPNO
cycle: 5

Station Type Date Time Source
KSKA TAF 2020/01/23 23:00 UTC NOAA

TAF
AMD KSKA 222355Z 2223/2401 21009KT 6000 -RA BKN008 OVC010 620209 QNH3005INS
BECMG 2300/2302 18006KT 3200 -RA BR OVC005 650209 QNH3009INS WND 16006KT AFT 2303
BECMG 2311/2312 16006KT 3200 -RA BR BKN003 OVC005 650409 QNH3003INS TX04/2319Z TN00/2304Z

Example: see airport list